Time;durP1;ratioP1;P1;durP2;ratioP2;P2;SDS_P1;SDS_P2;PMS_P1;PMS_P2;Temp;Humidity;BMP_temperature;BMP_pressure;BME280_temperature;BME280_humidity;BME280_pressure;Samples;Min_cycle;Max_cycle;Signal;HPM_P1;HPM_P2
2022/09/10 00:01:38;;;;;;;9.70;9.40;;;14.10;99.90;;;;;;5100538;28;20236;-80
2022/09/10 00:04:15;;;;;;;9.60;9.30;;;14.10;99.90;;;;;;5100200;28;20331;-80
2022/09/10 00:06:44;;;;;;;9.80;9.50;;;14.20;99.90;;;;;;5100908;28;20240;-80
2022/09/10 00:09:13;;;;;;;9.90;9.60;;;14.20;99.90;;;;;;5101129;28;20279;-80
2022/09/10 00:11:45;;;;;;;9.70;9.40;;;14.20;99.90;;;;;;5102455;28;20237;-80
2022/09/10 00:14:20;;;;;;;10.00;9.70;;;14.10;99.90;;;;;;5104621;28;20240;-81
2022/09/10 00:16:51;;;;;;;9.90;9.60;;;14.10;99.90;;;;;;5104086;28;20220;-80
2022/09/10 00:19:20;;;;;;;9.73;9.43;;;14.00;99.90;;;;;;5104690;28;20305;-80
2022/09/10 00:21:50;;;;;;;10.00;9.70;;;14.00;99.90;;;;;;5104163;28;20226;-80
2022/09/10 00:24:21;;;;;;;9.80;9.50;;;13.90;99.90;;;;;;5103414;28;20232;-80
2022/09/10 00:26:51;;;;;;;10.17;9.87;;;13.90;99.90;;;;;;5103625;28;20217;-80
2022/09/10 00:29:19;;;;;;;10.00;9.70;;;13.90;99.90;;;;;;5103359;28;20243;-80
2022/09/10 00:31:48;;;;;;;9.53;9.23;;;13.90;99.90;;;;;;5103378;28;20240;-80
2022/09/10 00:34:16;;;;;;;10.00;9.70;;;13.90;99.90;;;;;;5107252;28;20237;-80
2022/09/10 00:36:46;;;;;;;9.90;9.60;;;13.90;99.90;;;;;;5107149;28;20289;-80
2022/09/10 00:39:19;;;;;;;9.83;9.53;;;13.90;99.90;;;;;;5104239;28;20255;-80
2022/09/10 00:41:51;;;;;;;9.83;9.53;;;13.90;99.90;;;;;;5103941;28;20229;-80
2022/09/10 00:44:59;;;;;;;9.80;9.50;;;13.80;99.90;;;;;;5103607;28;20237;-80
2022/09/10 00:47:36;;;;;;;10.00;9.70;;;13.80;99.90;;;;;;5103473;28;20225;-80
2022/09/10 00:50:18;;;;;;;9.87;9.57;;;13.80;99.90;;;;;;5104016;28;20229;-80
2022/09/10 00:52:47;;;;;;;10.00;9.70;;;13.80;99.90;;;;;;5104614;28;20256;-80
2022/09/10 00:55:16;;;;;;;9.97;9.67;;;13.80;99.90;;;;;;5103334;28;20241;-80
2022/09/10 00:57:52;;;;;;;10.10;9.80;;;13.80;99.90;;;;;;5103595;28;20244;-80
2022/09/10 01:00:21;;;;;;;9.80;9.50;;;13.80;99.90;;;;;;5103441;28;20303;-80
2022/09/10 01:02:54;;;;;;;10.10;9.80;;;13.80;99.90;;;;;;5103451;28;20233;-80
2022/09/10 01:05:22;;;;;;;10.00;9.70;;;13.90;99.90;;;;;;5103977;28;20344;-80
2022/09/10 01:07:51;;;;;;;9.90;9.60;;;13.90;99.90;;;;;;5113029;28;20285;-80
2022/09/10 01:10:24;;;;;;;10.07;9.77;;;13.90;99.90;;;;;;5105105;28;20225;-80
2022/09/10 01:13:26;;;;;;;9.80;9.50;;;14.00;99.90;;;;;;5104118;28;20638;-80
2022/09/10 01:16:03;;;;;;;10.00;9.70;;;14.00;99.90;;;;;;5102547;28;20232;-80
2022/09/10 01:18:51;;;;;;;9.90;9.60;;;14.00;99.90;;;;;;5103047;28;20225;-80
2022/09/10 01:21:26;;;;;;;9.80;9.50;;;14.00;99.90;;;;;;5103207;28;20724;-80
2022/09/10 01:24:47;;;;;;;9.80;9.50;;;14.10;99.90;;;;;;5102157;28;20229;-80
2022/09/10 01:27:38;;;;;;;10.00;9.70;;;14.00;99.90;;;;;;5080210;28;20238;-81
2022/09/10 01:30:14;;;;;;;10.10;9.80;;;14.00;99.90;;;;;;5106927;28;20315;-80
2022/09/10 01:33:03;;;;;;;9.80;9.50;;;14.00;99.90;;;;;;5104843;28;20261;-80
2022/09/10 01:35:37;;;;;;;9.63;9.33;;;14.00;99.90;;;;;;5103016;28;20328;-80
2022/09/10 01:38:14;;;;;;;9.80;9.50;;;13.90;99.90;;;;;;5118270;27;20296;-80
2022/09/10 01:40:42;;;;;;;9.80;9.50;;;13.90;99.90;;;;;;5121674;27;20221;-80
2022/09/10 01:43:12;;;;;;;9.70;9.40;;;13.90;99.90;;;;;;5121677;27;20206;-80
2022/09/10 01:45:56;;;;;;;9.90;9.60;;;13.90;99.90;;;;;;5120994;27;20293;-80
2022/09/10 01:49:13;;;;;;;9.70;9.40;;;13.90;99.90;;;;;;5122075;27;20237;-79
2022/09/10 01:52:07;;;;;;;9.83;9.53;;;13.90;99.90;;;;;;5099689;28;20268;-80
2022/09/10 01:54:46;;;;;;;9.93;9.63;;;13.90;99.90;;;;;;5118638;28;20263;-80
2022/09/10 01:57:29;;;;;;;9.80;9.50;;;13.90;99.90;;;;;;5119283;28;20241;-80
2022/09/10 02:00:10;;;;;;;9.60;9.30;;;13.90;99.90;;;;;;5120025;28;20236;-80
2022/09/10 02:02:49;;;;;;;9.80;9.50;;;13.90;99.90;;;;;;5121715;27;20209;-79
2022/09/10 02:05:19;;;;;;;9.67;9.37;;;13.90;99.90;;;;;;5120781;27;20240;-80
2022/09/10 02:07:49;;;;;;;10.00;9.70;;;14.00;99.90;;;;;;5119228;28;20233;-80
2022/09/10 02:10:17;;;;;;;9.90;9.60;;;14.00;99.90;;;;;;5119378;28;20236;-80
2022/09/10 02:12:46;;;;;;;9.80;9.50;;;14.00;99.90;;;;;;5106811;28;21039;-81
2022/09/10 02:15:24;;;;;;;9.90;9.60;;;14.00;99.90;;;;;;5102707;28;20241;-80
2022/09/10 02:17:53;;;;;;;9.63;9.33;;;14.00;99.90;;;;;;5103294;28;20229;-80
2022/09/10 02:20:23;;;;;;;9.70;9.40;;;14.00;99.90;;;;;;5117008;27;20249;-80
2022/09/10 02:23:04;;;;;;;9.83;9.53;;;14.00;99.90;;;;;;5103055;28;20233;-80
2022/09/10 02:25:41;;;;;;;9.80;9.50;;;14.00;99.90;;;;;;5100558;28;20241;-81
2022/09/10 02:28:08;;;;;;;9.87;9.57;;;14.00;99.90;;;;;;5101607;28;20220;-80
2022/09/10 02:30:44;;;;;;;10.23;9.93;;;14.00;99.90;;;;;;5100379;28;20237;-80
2022/09/10 02:33:17;;;;;;;9.97;9.67;;;14.00;99.90;;;;;;5101318;28;20320;-80
2022/09/10 02:35:47;;;;;;;9.77;9.47;;;14.10;99.90;;;;;;5101123;28;20253;-80
2022/09/10 02:38:15;;;;;;;9.87;9.57;;;14.10;99.90;;;;;;5100911;28;20243;-81
2022/09/10 02:40:45;;;;;;;9.80;9.50;;;14.10;99.90;;;;;;5100395;28;20240;-80
2022/09/10 02:43:15;;;;;;;9.90;9.60;;;14.10;99.90;;;;;;5101601;28;20229;-80
2022/09/10 02:45:49;;;;;;;9.83;9.53;;;14.10;99.90;;;;;;5110543;28;20237;-80
2022/09/10 02:48:17;;;;;;;10.00;9.70;;;14.10;99.90;;;;;;5103799;28;20232;-81
2022/09/10 02:50:46;;;;;;;9.70;9.40;;;14.10;99.90;;;;;;5106015;28;20255;-80
2022/09/10 02:53:13;;;;;;;9.83;9.53;;;14.10;99.90;;;;;;5112611;28;20228;-80
2022/09/10 02:55:43;;;;;;;9.60;9.30;;;14.10;99.90;;;;;;5104010;28;20240;-81
2022/09/10 02:58:12;;;;;;;9.90;9.60;;;14.20;99.90;;;;;;5102504;28;20310;-81
2022/09/10 03:00:40;;;;;;;9.70;9.40;;;14.20;99.90;;;;;;5101140;28;20229;-81
2022/09/10 03:03:12;;;;;;;10.10;9.80;;;14.30;99.90;;;;;;5101318;28;20305;-81
2022/09/10 03:05:41;;;;;;;9.87;9.57;;;14.30;99.90;;;;;;5101730;28;20231;-80
2022/09/10 03:08:10;;;;;;;9.90;9.60;;;14.30;99.90;;;;;;5103038;28;20237;-80
2022/09/10 03:10:39;;;;;;;9.90;9.60;;;14.30;99.90;;;;;;5102050;28;20316;-80
2022/09/10 03:13:09;;;;;;;9.67;9.37;;;14.30;99.90;;;;;;5102365;28;20234;-81
2022/09/10 03:15:39;;;;;;;9.80;9.50;;;14.30;99.90;;;;;;5104545;28;20296;-82
2022/09/10 03:18:10;;;;;;;9.80;9.50;;;14.40;99.90;;;;;;5103516;28;20252;-80
2022/09/10 03:20:37;;;;;;;9.90;9.60;;;14.40;99.90;;;;;;5102365;28;20237;-80
2022/09/10 03:23:07;;;;;;;9.93;9.63;;;14.30;99.90;;;;;;5102015;28;20251;-80
2022/09/10 03:25:37;;;;;;;9.90;9.60;;;14.30;99.90;;;;;;5101479;28;20229;-80
2022/09/10 03:28:06;;;;;;;10.00;9.70;;;14.30;99.90;;;;;;5102186;28;20344;-80
2022/09/10 03:30:35;;;;;;;10.00;9.70;;;14.30;99.90;;;;;;5101633;28;20261;-80
2022/09/10 03:33:04;;;;;;;9.90;9.60;;;14.30;99.90;;;;;;5101809;28;20325;-80
2022/09/10 03:35:34;;;;;;;10.20;9.90;;;14.30;99.90;;;;;;5101362;28;20287;-80
2022/09/10 03:38:04;;;;;;;10.00;9.70;;;14.40;99.90;;;;;;5102948;28;20233;-80
2022/09/10 03:40:33;;;;;;;9.87;9.57;;;14.30;99.90;;;;;;5101847;28;20241;-80
2022/09/10 03:43:04;;;;;;;9.93;9.63;;;14.30;99.90;;;;;;5100582;28;20236;-80
2022/09/10 03:45:32;;;;;;;9.70;9.40;;;14.30;99.90;;;;;;5100366;28;20290;-80
2022/09/10 03:48:02;;;;;;;10.00;9.70;;;14.30;99.90;;;;;;5100172;28;20279;-80
2022/09/10 03:50:30;;;;;;;9.83;9.53;;;14.20;99.90;;;;;;5100954;28;20299;-80
2022/09/10 03:53:06;;;;;;;9.90;9.60;;;14.20;99.90;;;;;;5101044;28;20229;-81
2022/09/10 03:55:33;;;;;;;10.10;9.80;;;14.20;99.90;;;;;;5100976;28;20243;-80
2022/09/10 03:58:01;;;;;;;9.97;9.67;;;14.20;99.90;;;;;;5099776;28;20300;-80
2022/09/10 04:00:29;;;;;;;10.00;9.70;;;14.20;99.90;;;;;;5100975;28;20233;-80
2022/09/10 04:02:57;;;;;;;10.00;9.70;;;14.10;99.90;;;;;;5101134;28;20218;-80
2022/09/10 04:05:27;;;;;;;10.00;9.70;;;14.10;99.90;;;;;;5099565;28;20241;-80
2022/09/10 04:07:57;;;;;;;9.67;9.37;;;14.10;99.90;;;;;;5100075;28;20238;-80
2022/09/10 04:10:28;;;;;;;9.70;9.40;;;14.10;99.90;;;;;;5100475;28;20325;-79
2022/09/10 04:12:55;;;;;;;9.87;9.57;;;14.10;99.90;;;;;;5100356;28;20225;-80
2022/09/10 04:15:26;;;;;;;9.90;9.60;;;14.10;99.90;;;;;;5099248;28;20248;-80
2022/09/10 04:17:54;;;;;;;9.80;9.50;;;14.10;99.90;;;;;;5100340;28;20293;-80
2022/09/10 04:20:24;;;;;;;9.90;9.60;;;14.10;99.90;;;;;;5099987;28;20233;-80
2022/09/10 04:22:53;;;;;;;9.87;9.57;;;14.00;99.90;;;;;;5099636;28;20283;-80
2022/09/10 04:25:22;;;;;;;10.10;9.80;;;14.00;99.90;;;;;;5099382;28;20233;-80
2022/09/10 04:27:56;;;;;;;9.80;9.50;;;14.00;99.90;;;;;;5103926;28;20289;-80
2022/09/10 04:30:23;;;;;;;9.77;9.47;;;14.00;99.90;;;;;;5101464;28;20240;-80
2022/09/10 04:32:51;;;;;;;9.90;9.60;;;14.00;99.90;;;;;;5100666;28;20233;-80
2022/09/10 04:35:20;;;;;;;10.00;9.70;;;14.00;99.90;;;;;;5100504;28;20234;-80
2022/09/10 04:37:48;;;;;;;9.80;9.50;;;13.90;99.90;;;;;;5101738;28;20229;-80
2022/09/10 04:40:17;;;;;;;10.10;9.80;;;13.90;99.90;;;;;;5110528;28;20253;-80
2022/09/10 04:42:44;;;;;;;10.00;9.70;;;13.80;99.90;;;;;;5101587;28;20308;-80
2022/09/10 04:45:14;;;;;;;10.20;9.90;;;13.80;99.90;;;;;;5100910;28;20270;-79
2022/09/10 04:47:41;;;;;;;10.07;9.77;;;13.80;99.90;;;;;;5101096;28;20260;-80
2022/09/10 04:50:10;;;;;;;9.93;9.63;;;13.90;99.90;;;;;;5099748;28;20236;-80
2022/09/10 04:52:42;;;;;;;10.07;9.77;;;13.90;99.90;;;;;;5100589;28;20232;-80
2022/09/10 04:55:09;;;;;;;10.10;9.80;;;13.90;99.90;;;;;;5099000;28;20276;-79
2022/09/10 04:57:38;;;;;;;9.80;9.50;;;13.90;99.90;;;;;;5100122;28;20321;-80
2022/09/10 05:00:08;;;;;;;9.67;9.37;;;13.90;99.90;;;;;;5102793;28;20251;-80
2022/09/10 05:02:46;;;;;;;9.80;9.50;;;13.90;99.90;;;;;;5102693;28;20256;-80
2022/09/10 05:05:15;;;;;;;9.67;9.37;;;13.90;99.90;;;;;;5104564;28;20243;-80
2022/09/10 05:07:45;;;;;;;9.70;9.40;;;13.90;99.90;;;;;;5103462;28;20287;-80
2022/09/10 05:10:14;;;;;;;9.70;9.40;;;14.00;99.90;;;;;;5104416;28;20252;-79
2022/09/10 05:12:44;;;;;;;9.43;9.13;;;14.00;99.90;;;;;;5103992;28;20225;-80
2022/09/10 05:15:13;;;;;;;9.50;9.20;;;13.90;99.90;;;;;;5102838;28;20268;-79
2022/09/10 05:17:48;;;;;;;9.60;9.30;;;13.90;99.90;;;;;;5103059;28;20233;-79
2022/09/10 05:20:16;;;;;;;9.60;9.30;;;13.90;99.90;;;;;;5105155;28;20229;-79
2022/09/10 05:22:44;;;;;;;9.70;9.40;;;14.00;99.90;;;;;;5109744;28;20232;-79
2022/09/10 05:25:11;;;;;;;9.40;9.10;;;14.00;99.90;;;;;;5109131;28;20320;-80
2022/09/10 05:27:40;;;;;;;9.57;9.27;;;14.00;99.90;;;;;;5105330;28;20235;-79
2022/09/10 05:30:10;;;;;;;9.70;9.40;;;14.00;99.90;;;;;;5104682;28;20240;-79
2022/09/10 05:32:39;;;;;;;9.57;9.27;;;14.00;99.90;;;;;;5103997;28;20245;-80
2022/09/10 05:35:15;;;;;;;9.70;9.40;;;14.00;99.90;;;;;;5102789;28;20237;-80
2022/09/10 05:37:44;;;;;;;9.53;9.23;;;14.00;99.90;;;;;;5104347;28;20327;-80
2022/09/10 05:40:17;;;;;;;9.60;9.30;;;14.10;99.90;;;;;;5104481;28;20253;-80
2022/09/10 05:42:46;;;;;;;9.70;9.40;;;14.00;99.90;;;;;;5103046;28;20725;-80
2022/09/10 05:45:17;;;;;;;9.70;9.40;;;14.10;99.90;;;;;;5102505;28;20233;-79
2022/09/10 05:47:45;;;;;;;9.70;9.40;;;14.10;99.90;;;;;;5102997;28;20314;-81
2022/09/10 05:50:16;;;;;;;9.80;9.50;;;14.10;99.90;;;;;;5103786;28;20240;-80
2022/09/10 05:52:43;;;;;;;9.83;9.53;;;14.20;99.90;;;;;;5102526;28;20260;-80
2022/09/10 05:55:13;;;;;;;10.10;9.80;;;14.10;99.90;;;;;;5102236;28;20237;-80
2022/09/10 05:57:42;;;;;;;9.90;9.60;;;14.10;99.90;;;;;;5102746;28;20248;-80
2022/09/10 06:00:13;;;;;;;9.90;9.60;;;14.20;99.90;;;;;;5102493;28;20229;-80
2022/09/10 06:02:42;;;;;;;9.80;9.50;;;14.20;99.90;;;;;;5102663;28;20240;-80
2022/09/10 06:05:12;;;;;;;9.57;9.27;;;14.30;99.90;;;;;;5101053;28;20243;-81
2022/09/10 06:07:43;;;;;;;9.50;9.20;;;14.30;99.90;;;;;;5102739;28;20233;-80
2022/09/10 06:10:11;;;;;;;9.67;9.37;;;14.30;99.90;;;;;;5102374;28;20705;-81
2022/09/10 06:12:40;;;;;;;9.60;9.30;;;14.30;99.90;;;;;;5102364;28;20217;-80
2022/09/10 06:15:09;;;;;;;9.80;9.50;;;14.30;99.90;;;;;;5101260;28;20241;-81
2022/09/10 06:17:39;;;;;;;9.90;9.60;;;14.40;99.90;;;;;;5103126;28;20283;-80
2022/09/10 06:20:08;;;;;;;10.00;9.70;;;14.40;99.90;;;;;;5102313;28;20233;-80
2022/09/10 06:22:37;;;;;;;10.23;9.93;;;14.40;99.90;;;;;;5101489;28;20268;-80
2022/09/10 06:25:09;;;;;;;9.97;9.67;;;14.40;99.90;;;;;;5105721;28;20229;-80
2022/09/10 06:27:37;;;;;;;10.00;9.70;;;14.40;99.90;;;;;;5107011;28;20234;-81
2022/09/10 06:30:05;;;;;;;10.20;9.90;;;14.40;99.90;;;;;;5103509;28;20243;-80
2022/09/10 06:32:35;;;;;;;10.20;9.90;;;14.40;99.90;;;;;;5102424;28;20226;-80
2022/09/10 06:35:05;;;;;;;9.88;9.57;;;14.40;99.90;;;;;;5101039;28;20309;-80
2022/09/10 06:37:34;;;;;;;9.83;9.53;;;14.40;99.90;;;;;;5101236;28;20233;-81
2022/09/10 06:40:02;;;;;;;9.70;9.40;;;14.50;99.90;;;;;;5102157;28;20226;-80
2022/09/10 06:42:34;;;;;;;9.80;9.50;;;14.50;99.90;;;;;;5101500;28;20225;-80
2022/09/10 06:45:02;;;;;;;9.60;9.30;;;14.50;99.90;;;;;;5100565;28;20241;-81
2022/09/10 06:47:32;;;;;;;9.80;9.50;;;14.50;99.90;;;;;;5101995;28;20225;-80
2022/09/10 06:50:04;;;;;;;9.70;9.40;;;14.50;99.90;;;;;;5101292;28;20237;-80
2022/09/10 06:52:32;;;;;;;10.00;9.70;;;14.50;99.90;;;;;;5101512;28;20269;-80
2022/09/10 06:55:01;;;;;;;9.60;9.30;;;14.50;99.90;;;;;;5105340;28;20225;-80
2022/09/10 06:57:33;;;;;;;10.00;9.70;;;14.50;99.90;;;;;;5107268;28;20291;-80
2022/09/10 07:00:01;;;;;;;9.80;9.50;;;14.60;99.90;;;;;;5102458;28;20230;-80
2022/09/10 07:02:30;;;;;;;9.90;9.60;;;14.70;99.90;;;;;;5101973;28;20228;-80
2022/09/10 07:04:57;;;;;;;9.90;9.60;;;14.70;99.90;;;;;;5101143;28;20244;-81
2022/09/10 07:07:26;;;;;;;9.70;9.40;;;14.70;99.90;;;;;;5101145;28;20236;-80
2022/09/10 07:10:00;;;;;;;9.70;9.40;;;14.70;99.90;;;;;;5100992;28;20252;-81
2022/09/10 07:12:28;;;;;;;9.70;9.40;;;14.80;99.90;;;;;;5100947;28;20229;-80
2022/09/10 07:14:58;;;;;;;9.80;9.50;;;14.80;99.90;;;;;;5099980;28;20248;-81
2022/09/10 07:17:27;;;;;;;9.57;9.27;;;14.90;99.90;;;;;;5101275;28;20233;-80
2022/09/10 07:19:56;;;;;;;9.60;9.30;;;15.00;99.90;;;;;;5101338;28;20310;-81
2022/09/10 07:22:25;;;;;;;9.82;9.52;;;15.10;99.90;;;;;;5099592;28;20224;-80
2022/09/10 07:24:54;;;;;;;9.48;9.18;;;15.20;99.90;;;;;;5103433;28;20286;-80
2022/09/10 07:27:25;;;;;;;9.43;9.13;;;15.30;99.90;;;;;;5102063;28;20226;-81
2022/09/10 07:29:52;;;;;;;9.60;9.30;;;15.40;99.90;;;;;;5102118;28;20244;-81
2022/09/10 07:32:23;;;;;;;9.63;9.32;;;15.40;99.90;;;;;;5102521;28;20225;-80
2022/09/10 07:34:54;;;;;;;9.40;9.10;;;15.50;99.90;;;;;;5100441;28;20291;-80
2022/09/10 07:37:22;;;;;;;9.40;9.10;;;15.50;99.90;;;;;;5103934;28;20286;-80
2022/09/10 07:39:51;;;;;;;9.30;9.00;;;15.50;99.90;;;;;;5102058;28;20285;-80
2022/09/10 07:42:20;;;;;;;9.05;8.75;;;15.60;99.90;;;;;;5101093;28;20233;-80
2022/09/10 07:44:50;;;;;;;9.05;8.75;;;15.60;99.90;;;;;;5100771;28;20324;-81
2022/09/10 07:47:19;;;;;;;9.27;8.98;;;15.70;99.90;;;;;;5100881;28;20237;-81
2022/09/10 07:49:58;;;;;;;9.20;8.90;;;15.80;99.90;;;;;;5101152;28;20234;-80
2022/09/10 07:52:27;;;;;;;9.13;8.82;;;15.90;99.90;;;;;;5100489;28;20229;-81
2022/09/10 07:54:56;;;;;;;9.15;8.85;;;16.00;99.90;;;;;;5100754;28;20229;-80
2022/09/10 07:57:25;;;;;;;9.60;9.30;;;16.00;99.90;;;;;;5101420;28;20225;-81
2022/09/10 07:59:53;;;;;;;9.57;9.27;;;16.00;99.90;;;;;;5101371;28;20261;-80
2022/09/10 08:02:24;;;;;;;9.50;9.20;;;16.00;99.90;;;;;;5100853;28;20236;-80
2022/09/10 08:05:03;;;;;;;9.75;9.45;;;15.90;99.90;;;;;;5100945;28;20237;-81
2022/09/10 08:07:33;;;;;;;9.77;9.48;;;15.90;99.90;;;;;;5102956;28;20225;-80
2022/09/10 08:10:02;;;;;;;9.55;9.25;;;15.90;99.90;;;;;;5102224;28;20237;-81
2022/09/10 08:12:32;;;;;;;9.40;9.10;;;15.90;99.90;;;;;;5110966;28;20228;-80
2022/09/10 08:15:01;;;;;;;9.48;9.18;;;15.90;99.90;;;;;;5100909;28;20259;-81
2022/09/10 08:17:31;;;;;;;9.77;9.48;;;16.00;99.90;;;;;;5101771;28;20325;-81
2022/09/10 08:20:06;;;;;;;9.60;9.30;;;15.90;99.90;;;;;;5102013;28;20236;-80
2022/09/10 08:22:42;;;;;;;9.90;9.60;;;15.90;99.90;;;;;;5100331;28;20237;-80
2022/09/10 08:25:09;;;;;;;9.93;9.63;;;15.90;99.90;;;;;;5100045;28;20296;-81
2022/09/10 08:27:37;;;;;;;9.90;9.60;;;15.80;99.90;;;;;;5101071;28;20244;-81
2022/09/10 08:30:07;;;;;;;10.00;9.70;;;15.80;99.90;;;;;;5100592;28;20237;-80
2022/09/10 08:32:36;;;;;;;9.60;9.30;;;15.80;99.90;;;;;;5101779;28;20244;-80
2022/09/10 08:35:08;;;;;;;9.75;9.45;;;15.70;99.90;;;;;;5103501;28;20241;-81
2022/09/10 08:37:37;;;;;;;9.52;9.23;;;15.70;99.90;;;;;;5103457;28;20235;-81
2022/09/10 08:40:07;;;;;;;9.60;9.30;;;15.70;99.90;;;;;;5103613;28;20291;-81
2022/09/10 08:42:44;;;;;;;9.57;9.27;;;15.70;99.90;;;;;;5104259;28;20234;-80
2022/09/10 08:45:16;;;;;;;9.60;9.30;;;15.80;99.90;;;;;;5104178;28;20268;-81
2022/09/10 08:47:53;;;;;;;9.60;9.30;;;15.80;99.90;;;;;;5105488;28;20239;-82
2022/09/10 08:50:39;;;;;;;9.45;9.15;;;15.90;99.90;;;;;;5107189;28;20535;-81
2022/09/10 08:53:18;;;;;;;9.70;9.40;;;15.90;99.90;;;;;;5109243;28;20225;-81
2022/09/10 08:55:47;;;;;;;9.45;9.15;;;15.90;99.90;;;;;;5103998;28;20301;-81
2022/09/10 08:58:19;;;;;;;9.40;9.10;;;15.90;99.90;;;;;;5105128;28;20229;-81
2022/09/10 09:00:48;;;;;;;9.50;9.20;;;15.90;99.90;;;;;;5105720;28;20236;-81
2022/09/10 09:03:23;;;;;;;9.32;9.02;;;16.00;99.90;;;;;;5104350;28;20227;-81
2022/09/10 09:05:56;;;;;;;9.50;9.20;;;16.00;99.90;;;;;;5104213;28;20220;-81
2022/09/10 09:08:30;;;;;;;9.60;9.30;;;16.00;99.90;;;;;;5104384;28;20324;-81
2022/09/10 09:11:10;;;;;;;9.60;9.30;;;16.00;99.90;;;;;;5103384;28;20229;-81
2022/09/10 09:13:58;;;;;;;9.90;9.60;;;15.90;99.90;;;;;;5103321;28;20299;-81
2022/09/10 09:16:52;;;;;;;9.68;9.38;;;15.90;99.90;;;;;;5103363;28;20360;-81
2022/09/10 09:19:31;;;;;;;9.57;9.27;;;15.90;99.90;;;;;;5104036;28;20275;-80
2022/09/10 09:22:12;;;;;;;9.40;9.10;;;15.80;99.90;;;;;;5103366;28;20241;-80
2022/09/10 09:24:53;;;;;;;9.80;9.50;;;15.90;99.90;;;;;;5102586;28;20237;-81
2022/09/10 09:27:25;;;;;;;9.90;9.60;;;15.90;99.90;;;;;;5103803;28;20289;-81
2022/09/10 09:29:58;;;;;;;9.50;9.20;;;16.00;99.90;;;;;;5103509;28;20280;-81
2022/09/10 09:32:26;;;;;;;9.48;9.18;;;16.10;99.90;;;;;;5103245;28;20237;-81
2022/09/10 09:34:57;;;;;;;9.25;8.95;;;16.10;99.90;;;;;;5102708;28;20277;-81
2022/09/10 09:37:33;;;;;;;9.30;9.00;;;16.30;99.90;;;;;;5103261;28;20308;-81
2022/09/10 09:40:13;;;;;;;9.38;9.07;;;16.30;99.90;;;;;;5103974;28;20324;-81
2022/09/10 09:42:48;;;;;;;9.50;9.20;;;16.40;99.90;;;;;;5102513;28;20247;-81
2022/09/10 09:45:27;;;;;;;9.43;9.13;;;16.50;99.90;;;;;;5107022;27;20259;-80
2022/09/10 09:47:56;;;;;;;9.57;9.27;;;16.50;99.90;;;;;;5121660;28;20209;-80
2022/09/10 09:50:25;;;;;;;9.63;9.32;;;16.50;99.90;;;;;;5121181;27;20327;-80
2022/09/10 09:53:01;;;;;;;10.00;9.70;;;16.60;99.90;;;;;;5121242;27;20229;-80
2022/09/10 09:55:34;;;;;;;9.80;9.50;;;16.60;99.90;;;;;;5120169;28;20217;-81
2022/09/10 09:58:36;;;;;;;9.60;9.30;;;16.70;99.90;;;;;;5121416;27;20233;-80
2022/09/10 10:01:16;;;;;;;9.80;9.50;;;16.80;99.90;;;;;;5118511;27;20217;-80
2022/09/10 10:04:04;;;;;;;9.40;9.10;;;16.80;99.90;;;;;;5120705;27;20253;-81
2022/09/10 10:06:34;;;;;;;9.50;9.20;;;16.70;99.90;;;;;;5120399;27;20225;-81
2022/09/10 10:09:12;;;;;;;9.77;9.48;;;16.70;99.90;;;;;;5120817;27;20241;-81
2022/09/10 10:11:49;;;;;;;10.05;9.75;;;16.60;99.90;;;;;;5119555;27;20224;-81
2022/09/10 10:14:40;;;;;;;9.93;9.63;;;16.50;99.90;;;;;;5119321;28;20293;-81
2022/09/10 10:17:42;;;;;;;9.98;9.68;;;16.40;99.90;;;;;;5120299;28;20233;-81
2022/09/10 10:20:13;;;;;;;9.95;9.65;;;16.30;99.90;;;;;;5032869;28;20291;-81
2022/09/10 10:22:42;;;;;;;9.90;9.60;;;16.20;99.90;;;;;;5093680;28;20301;-81
2022/09/10 10:25:40;;;;;;;9.90;9.60;;;16.10;99.90;;;;;;5104590;28;20225;-81
2022/09/10 10:28:27;;;;;;;9.55;9.25;;;16.00;99.90;;;;;;5105018;28;20239;-80
2022/09/10 10:31:03;;;;;;;9.57;9.27;;;16.00;99.90;;;;;;5104754;28;20233;-80
2022/09/10 10:33:34;;;;;;;9.65;9.35;;;16.00;99.90;;;;;;5103399;28;20233;-80
2022/09/10 10:36:10;;;;;;;9.40;9.10;;;15.90;99.90;;;;;;5103140;28;20261;-81
2022/09/10 10:38:40;;;;;;;9.48;9.18;;;16.00;99.90;;;;;;5102327;28;20277;-81
2022/09/10 10:41:44;;;;;;;9.57;9.27;;;16.00;99.90;;;;;;5102769;28;20243;-81
2022/09/10 10:44:46;;;;;;;9.38;9.07;;;16.10;99.90;;;;;;5101817;28;20237;-81
2022/09/10 10:47:36;;;;;;;9.55;9.25;;;16.10;99.90;;;;;;5102459;28;20229;-81
2022/09/10 10:50:20;;;;;;;9.30;9.00;;;16.10;99.90;;;;;;5103017;28;20221;-81
2022/09/10 10:53:18;;;;;;;9.23;8.93;;;16.10;99.90;;;;;;5102307;28;20293;-80
2022/09/10 10:55:55;;;;;;;9.00;8.70;;;16.10;99.90;;;;;;5100046;28;20237;-82
2022/09/10 10:58:54;;;;;;;9.20;8.90;;;16.10;99.90;;;;;;5102183;28;20332;-83
2022/09/10 11:01:25;;;;;;;8.93;8.63;;;16.20;99.90;;;;;;5102287;28;20268;-80
2022/09/10 11:04:02;;;;;;;9.00;8.70;;;16.20;99.90;;;;;;5102410;28;20241;-81
2022/09/10 11:06:37;;;;;;;8.93;8.63;;;16.30;99.90;;;;;;5119364;28;20228;-81
2022/09/10 11:09:10;;;;;;;9.40;9.10;;;16.30;99.90;;;;;;5117512;28;20342;-81
2022/09/10 11:11:51;;;;;;;9.60;9.30;;;16.30;99.90;;;;;;5107939;28;20225;-81
2022/09/10 11:14:27;;;;;;;9.40;9.10;;;16.10;99.90;;;;;;5102744;28;20713;-80
2022/09/10 11:16:59;;;;;;;9.45;9.15;;;16.10;99.90;;;;;;5101629;28;20225;-80
2022/09/10 11:19:37;;;;;;;9.30;9.00;;;16.10;99.90;;;;;;5100693;28;20233;-80
2022/09/10 11:22:13;;;;;;;9.38;9.07;;;16.10;99.90;;;;;;5101019;28;20255;-81
2022/09/10 11:24:47;;;;;;;9.50;9.20;;;16.00;99.90;;;;;;5100302;28;20252;-79
2022/09/10 11:27:19;;;;;;;9.60;9.30;;;16.10;99.90;;;;;;5100864;28;20234;-81
2022/09/10 11:29:57;;;;;;;9.52;9.23;;;16.00;99.90;;;;;;5100663;28;20229;-81
2022/09/10 11:32:31;;;;;;;9.43;9.13;;;16.20;99.90;;;;;;5101000;28;20257;-81
2022/09/10 11:35:10;;;;;;;9.18;8.88;;;16.40;99.90;;;;;;5099817;28;20237;-81
2022/09/10 11:37:54;;;;;;;9.20;8.90;;;16.60;99.90;;;;;;5100097;28;20225;-81
2022/09/10 11:40:31;;;;;;;8.95;8.73;;;16.90;99.90;;;;;;5100280;28;20259;-81
2022/09/10 11:43:06;;;;;;;9.13;8.82;;;17.20;99.90;;;;;;5106354;28;20229;-81
2022/09/10 11:45:45;;;;;;;9.38;9.07;;;17.70;99.90;;;;;;5099995;28;20237;-82
2022/09/10 11:48:20;;;;;;;9.50;9.20;;;18.30;99.90;;;;;;5100849;28;20758;-81
2022/09/10 11:50:57;;;;;;;9.10;8.80;;;18.60;99.90;;;;;;5100945;28;20228;-81
2022/09/10 11:53:26;;;;;;;9.80;9.50;;;18.80;99.90;;;;;;5100765;28;20224;-81
2022/09/10 11:56:26;;;;;;;9.60;9.30;;;19.00;99.90;;;;;;5100109;28;20363;-80
2022/09/10 11:59:09;;;;;;;9.60;9.30;;;19.10;99.90;;;;;;5100733;28;20229;-80
2022/09/10 12:02:01;;;;;;;9.40;9.10;;;19.30;99.90;;;;;;5101056;28;20214;-80
2022/09/10 12:04:51;;;;;;;9.55;9.25;;;19.30;99.90;;;;;;5099188;28;20242;-80
2022/09/10 12:07:38;;;;;;;9.50;9.20;;;19.00;99.90;;;;;;5100788;28;20235;-80
2022/09/10 12:10:19;;;;;;;9.35;9.05;;;18.80;99.90;;;;;;5103560;28;20287;-80
2022/09/10 12:12:49;;;;;;;9.30;9.00;;;18.80;99.90;;;;;;5103579;28;20235;-80
2022/09/10 12:15:21;;;;;;;8.80;8.60;;;18.90;99.90;;;;;;5102871;28;20264;-80
2022/09/10 12:17:55;;;;;;;8.75;8.55;;;19.00;99.90;;;;;;5109717;28;20229;-81
2022/09/10 12:20:32;;;;;;;9.18;8.88;;;19.00;99.90;;;;;;5109216;28;20532;-80
2022/09/10 12:23:00;;;;;;;9.38;9.07;;;19.00;99.90;;;;;;5107065;28;20288;-80
2022/09/10 12:25:30;;;;;;;9.48;9.18;;;18.90;99.90;;;;;;5103367;28;20237;-81
2022/09/10 12:27:59;;;;;;;9.73;9.43;;;18.80;99.90;;;;;;5103440;28;20233;-81
2022/09/10 12:31:03;;;;;;;9.88;9.57;;;19.00;99.90;;;;;;5103311;28;20229;-80
2022/09/10 12:34:11;;;;;;;9.95;9.65;;;19.40;99.90;;;;;;5103079;28;20229;-80
2022/09/10 12:37:32;;;;;;;10.18;9.88;;;20.20;99.90;;;;;;5090021;28;20229;-81
2022/09/10 12:40:44;;;;;;;10.35;10.05;;;20.80;99.90;;;;;;5103176;28;20221;-80
2022/09/10 12:43:54;;;;;;;10.90;10.60;;;21.20;99.90;;;;;;5102805;28;20290;-80
2022/09/10 12:46:24;;;;;;;10.60;10.30;;;21.60;99.90;;;;;;5101466;28;20248;-80
2022/09/10 12:49:10;;;;;;;10.70;10.40;;;22.00;99.90;;;;;;5103703;28;20257;-80
2022/09/10 12:51:55;;;;;;;10.73;10.43;;;22.40;99.90;;;;;;5102949;28;20233;-80
2022/09/10 12:54:47;;;;;;;10.70;10.40;;;23.00;99.90;;;;;;5101509;28;20293;-80
2022/09/10 12:57:32;;;;;;;10.70;10.40;;;23.30;99.90;;;;;;5102133;28;20259;-80
2022/09/10 13:00:22;;;;;;;10.48;10.18;;;22.80;99.90;;;;;;5102806;28;20229;-81
2022/09/10 13:02:54;;;;;;;10.40;10.10;;;22.10;99.90;;;;;;5096833;28;20233;-80
2022/09/10 13:05:41;;;;;;;10.50;10.20;;;22.10;99.90;;;;;;5101337;28;20237;-80
2022/09/10 13:08:19;;;;;;;10.50;10.20;;;22.60;99.90;;;;;;5102351;28;20229;-80
2022/09/10 13:11:04;;;;;;;10.50;10.20;;;23.20;99.90;;;;;;5104274;28;20230;-79
2022/09/10 13:13:41;;;;;;;10.73;10.43;;;23.70;99.90;;;;;;5102054;28;20240;-80
2022/09/10 13:16:17;;;;;;;10.70;10.40;;;23.80;99.90;;;;;;5101133;28;20233;-79
2022/09/10 13:18:45;;;;;;;10.60;10.30;;;23.50;99.90;;;;;;5101311;28;20225;-78
2022/09/10 13:21:54;;;;;;;10.60;10.30;;;23.20;99.90;;;;;;5102066;28;20279;-79